createdAt,value
2017-09-06T00:00:36.626Z,99928.89
2017-09-06T00:03:02.742Z,99915.50
2017-09-06T00:05:28.857Z,99918.66
2017-09-06T00:07:54.936Z,99915.22
2017-09-06T00:10:21.058Z,99916.03
2017-09-06T00:12:47.390Z,99919.06
2017-09-06T00:15:13.513Z,99913.05
2017-09-06T00:17:39.622Z,99912.55
2017-09-06T00:20:05.715Z,99911.21
2017-09-06T00:22:31.839Z,99911.26
2017-09-06T00:24:57.935Z,99910.84
2017-09-06T00:27:24.295Z,99905.45
2017-09-06T00:29:50.388Z,99906.69
2017-09-06T00:32:16.474Z,99908.31
2017-09-06T00:34:42.643Z,99903.41
2017-09-06T00:37:08.752Z,99899.63
2017-09-06T00:39:34.858Z,99892.32
2017-09-06T00:42:00.978Z,99889.84
2017-09-06T00:44:27.071Z,99892.70
2017-09-06T00:46:53.202Z,99895.05
2017-09-06T00:49:19.258Z,99894.80
2017-09-06T00:51:45.913Z,99889.84
2017-09-06T00:54:12.016Z,99882.53
2017-09-06T00:56:38.128Z,99880.59
2017-09-06T00:59:04.254Z,99878.04
2017-09-06T01:01:31.165Z,99871.89
2017-09-06T01:03:57.281Z,99871.34
2017-09-06T01:06:23.439Z,99870.64
2017-09-06T01:08:49.561Z,99866.31
2017-09-06T01:11:15.652Z,99867.49
2017-09-06T01:13:41.769Z,99857.75
2017-09-06T01:16:07.874Z,99858.17
2017-09-06T01:18:33.982Z,99854.89
2017-09-06T01:21:00.056Z,99858.88
2017-09-06T01:23:26.119Z,99854.73
2017-09-06T01:25:52.243Z,99852.88
2017-09-06T01:28:18.365Z,99850.56
2017-09-06T01:30:44.469Z,99848.16
2017-09-06T01:33:10.560Z,99848.17
2017-09-06T01:35:36.644Z,99846.82
2017-09-06T01:38:02.777Z,99847.03
2017-09-06T01:40:29.344Z,99846.19
2017-09-06T01:42:55.445Z,99838.88
2017-09-06T01:45:21.835Z,99839.34
2017-09-06T01:47:47.920Z,99831.19
2017-09-06T01:50:14.085Z,99830.51
2017-09-06T01:52:40.211Z,99822.30
2017-09-06T01:55:06.289Z,99827.36
2017-09-06T01:57:32.397Z,99821.95
2017-09-06T01:59:58.521Z,99822.35
2017-09-06T02:02:24.631Z,99821.43
2017-09-06T02:04:50.723Z,99809.80
2017-09-06T02:07:16.803Z,99814.21
2017-09-06T02:09:42.878Z,99808.98
2017-09-06T02:12:09.012Z,99810.61
2017-09-06T02:14:35.113Z,99814.82
2017-09-06T02:17:01.219Z,99813.62
2017-09-06T02:19:27.301Z,99800.41
2017-09-06T02:21:53.379Z,99800.30
2017-09-06T02:24:19.496Z,99792.53
2017-09-06T02:26:45.602Z,99792.61
2017-09-06T02:29:11.702Z,99797.23
2017-09-06T02:31:37.806Z,99797.09
2017-09-06T02:34:03.888Z,99794.39
2017-09-06T02:36:29.961Z,99784.66
2017-09-06T02:38:56.108Z,99791.08
2017-09-06T02:41:22.212Z,99787.31
2017-09-06T02:43:48.339Z,99781.69
2017-09-06T02:46:14.426Z,99775.25
2017-09-06T02:48:40.514Z,99777.54
2017-09-06T02:51:06.610Z,99772.97
2017-09-06T02:53:32.734Z,99772.76
2017-09-06T02:55:58.817Z,99768.09
2017-09-06T02:58:24.926Z,99766.19
2017-09-06T03:00:51.009Z,99758.44
2017-09-06T03:03:17.113Z,99760.03
2017-09-06T03:05:43.236Z,99753.91
2017-09-06T03:08:09.347Z,99745.11
2017-09-06T03:10:35.435Z,99740.53
2017-09-06T03:13:01.549Z,99737.84
2017-09-06T03:15:27.641Z,99741.47
2017-09-06T03:17:53.818Z,99734.53
2017-09-06T03:20:20.018Z,99736.67
2017-09-06T03:22:46.136Z,99734.95
2017-09-06T03:25:12.262Z,99728.92
2017-09-06T03:27:38.358Z,99735.42
2017-09-06T03:30:04.445Z,99738.94
2017-09-06T03:32:30.530Z,99734.83
2017-09-06T03:34:56.610Z,99727.03
2017-09-06T03:37:22.729Z,99719.71
2017-09-06T03:39:48.829Z,99719.98
2017-09-06T03:42:14.938Z,99718.89
2017-09-06T03:44:41.052Z,99716.66
2017-09-06T03:47:07.184Z,99712.06
2017-09-06T03:49:33.313Z,99711.98
2017-09-06T03:51:59.427Z,99713.73
2017-09-06T03:54:25.540Z,99711.58
2017-09-06T03:56:51.686Z,99707.45
2017-09-06T03:59:17.766Z,99704.84
2017-09-06T04:01:43.893Z,99708.21
2017-09-06T04:04:09.976Z,99705.34
2017-09-06T04:06:36.094Z,99700.01
2017-09-06T04:09:02.204Z,99703.63
2017-09-06T04:11:28.345Z,99700.33
2017-09-06T04:13:54.456Z,99694.70
2017-09-06T04:16:20.635Z,99691.41
2017-09-06T04:18:46.809Z,99698.51
2017-09-06T04:21:12.886Z,99689.67
2017-09-06T04:23:39.009Z,99682.53
2017-09-06T04:26:05.091Z,99678.71
2017-09-06T04:28:31.153Z,99683.22
2017-09-06T04:30:57.242Z,99674.73
2017-09-06T04:33:23.334Z,99671.06
2017-09-06T04:35:49.460Z,99669.66
2017-09-06T04:38:15.543Z,99664.44
2017-09-06T04:40:41.662Z,99670.59
2017-09-06T04:43:07.768Z,99667.63
2017-09-06T04:45:33.857Z,99658.45
2017-09-06T04:47:59.966Z,99651.77
2017-09-06T04:50:27.052Z,99659.08
2017-09-06T04:52:53.109Z,99656.27
2017-09-06T04:55:19.157Z,99658.81
2017-09-06T04:57:45.294Z,99660.34
2017-09-06T05:00:11.425Z,99657.19
2017-09-06T05:02:37.609Z,99646.60
2017-09-06T05:05:03.819Z,99643.69
2017-09-06T05:07:29.900Z,99641.00
2017-09-06T05:09:56.029Z,99642.30
2017-09-06T05:12:22.174Z,99647.37
2017-09-06T05:14:48.268Z,99645.58
2017-09-06T05:17:14.361Z,99643.06
2017-09-06T05:19:40.435Z,99635.67
2017-09-06T05:22:06.525Z,99635.25
2017-09-06T05:24:32.653Z,99643.30
2017-09-06T05:26:58.770Z,99637.78
2017-09-06T05:29:24.859Z,99635.33
2017-09-06T05:31:50.929Z,99638.72
2017-09-06T05:34:17.067Z,99633.45
2017-09-06T05:36:43.187Z,99629.09
2017-09-06T05:39:09.293Z,99639.15
2017-09-06T05:41:35.344Z,99640.20
2017-09-06T05:44:01.479Z,99634.38
2017-09-06T05:46:27.564Z,99633.86
2017-09-06T05:48:53.695Z,99638.14
2017-09-06T05:51:19.824Z,99634.94
2017-09-06T05:53:47.077Z,99635.12
2017-09-06T05:56:13.202Z,99631.09
2017-09-06T05:58:39.322Z,99630.83
2017-09-06T06:01:05.449Z,99627.71
2017-09-06T06:03:31.557Z,99631.74
2017-09-06T06:05:57.623Z,99630.39
2017-09-06T06:08:23.716Z,99631.05
2017-09-06T06:10:49.794Z,99626.58
2017-09-06T06:13:15.927Z,99631.41
2017-09-06T06:15:42.014Z,99626.27
2017-09-06T06:18:08.117Z,99622.02
2017-09-06T06:20:34.196Z,99624.50
2017-09-06T06:23:00.948Z,99629.47
2017-09-06T06:25:27.046Z,99631.79
2017-09-06T06:27:53.170Z,99631.05
2017-09-06T06:30:19.284Z,99619.24
2017-09-06T06:32:45.404Z,99621.05
2017-09-06T06:35:11.536Z,99623.22
2017-09-06T06:37:37.649Z,99623.09
2017-09-06T06:40:03.716Z,99622.77
2017-09-06T06:42:29.815Z,99626.95
2017-09-06T06:44:55.959Z,99624.05
2017-09-06T06:47:22.059Z,99624.89
2017-09-06T06:49:48.155Z,99623.65
2017-09-06T06:52:14.586Z,99621.11
2017-09-06T06:54:40.715Z,99616.76
2017-09-06T06:57:06.803Z,99612.24
2017-09-06T06:59:32.919Z,99604.02
2017-09-06T07:01:59.023Z,99602.39
2017-09-06T07:04:25.090Z,99600.55
2017-09-06T07:06:51.164Z,99600.06
2017-09-06T07:09:17.281Z,99599.52
2017-09-06T07:11:43.393Z,99600.07
2017-09-06T07:14:09.512Z,99595.66
2017-09-06T07:16:35.631Z,99590.20
2017-09-06T07:19:01.719Z,99590.02
2017-09-06T07:21:27.878Z,99587.83
2017-09-06T07:23:53.970Z,99585.34
2017-09-06T07:26:20.052Z,99591.55
2017-09-06T07:28:46.137Z,99582.19
2017-09-06T07:31:12.206Z,99583.02
2017-09-06T07:33:38.326Z,99581.84
2017-09-06T07:36:04.424Z,99579.10
2017-09-06T07:38:30.516Z,99576.95
2017-09-06T07:40:56.620Z,99571.38
2017-09-06T07:43:22.731Z,99574.98
2017-09-06T07:45:48.896Z,99574.94
2017-09-06T07:48:14.993Z,99567.05
2017-09-06T07:50:41.089Z,99571.53
2017-09-06T07:53:07.180Z,99577.53
2017-09-06T07:55:33.256Z,99572.83
2017-09-06T07:57:59.351Z,99568.53
2017-09-06T08:00:25.435Z,99572.97
2017-09-06T08:02:51.833Z,99566.37
2017-09-06T08:05:17.929Z,99567.30
2017-09-06T08:07:50.133Z,99561.09
2017-09-06T08:10:16.277Z,99564.88
2017-09-06T08:12:42.379Z,99560.45
2017-09-06T08:15:08.505Z,99560.84
2017-09-06T08:17:34.563Z,99561.00
2017-09-06T08:20:00.673Z,99560.63
2017-09-06T08:22:26.758Z,99552.13
2017-09-06T08:24:52.855Z,99556.30
2017-09-06T08:27:18.971Z,99544.47
2017-09-06T08:29:45.092Z,99567.54
2017-09-06T08:32:11.169Z,99558.75
2017-09-06T08:34:37.274Z,99560.56
2017-09-06T08:37:03.412Z,99566.05
2017-09-06T08:39:29.563Z,99565.97
2017-09-06T08:41:55.719Z,99555.41
2017-09-06T08:44:21.946Z,99556.66
2017-09-06T08:46:48.019Z,99553.45
2017-09-06T08:49:14.145Z,99547.19
2017-09-06T08:51:40.249Z,99552.12
2017-09-06T08:54:06.398Z,99551.92
2017-09-06T08:56:32.505Z,99549.31
2017-09-06T08:58:58.629Z,99548.57
2017-09-06T09:01:24.774Z,99539.28
2017-09-06T09:03:50.879Z,99540.48
2017-09-06T09:06:17.026Z,99538.39
2017-09-06T09:08:43.131Z,99526.80
2017-09-06T09:11:09.265Z,99529.08
2017-09-06T09:13:35.387Z,99524.20
2017-09-06T09:16:01.504Z,99515.31
2017-09-06T09:18:27.629Z,99519.89
2017-09-06T09:20:53.714Z,99522.72
2017-09-06T09:23:19.825Z,99513.52
2017-09-06T09:25:45.919Z,99504.55
2017-09-06T09:28:12.024Z,99503.78
2017-09-06T09:30:38.111Z,99499.91
2017-09-06T09:33:04.196Z,99494.68
2017-09-06T09:35:30.293Z,99492.69
2017-09-06T09:37:56.361Z,99487.32
2017-09-06T09:40:22.445Z,99481.49
2017-09-06T09:42:48.575Z,99482.11
2017-09-06T09:45:14.681Z,99488.30
2017-09-06T09:47:40.747Z,99475.22
2017-09-06T09:50:06.878Z,99475.49
2017-09-06T09:52:33.871Z,99464.11
2017-09-06T09:54:59.975Z,99469.69
2017-09-06T09:57:26.077Z,99471.41
2017-09-06T09:59:52.929Z,99470.39
2017-09-06T10:02:19.087Z,99457.70
2017-09-06T10:04:45.207Z,99453.98
2017-09-06T10:07:11.314Z,99454.97
2017-09-06T10:09:37.400Z,99457.84
2017-09-06T10:12:03.512Z,99464.70
2017-09-06T10:14:29.628Z,99450.16
2017-09-06T10:16:55.690Z,99431.52
2017-09-06T10:19:21.790Z,99441.72
2017-09-06T10:21:47.953Z,99447.88
2017-09-06T10:24:14.453Z,99462.88
2017-09-06T10:26:40.642Z,99453.00
2017-09-06T10:29:06.794Z,99452.95
2017-09-06T10:31:32.866Z,99454.20
2017-09-06T10:33:59.008Z,99448.14
2017-09-06T10:36:25.124Z,99450.63
2017-09-06T10:38:51.227Z,99447.02
2017-09-06T10:41:17.645Z,99454.20
2017-09-06T10:43:43.902Z,99429.09
2017-09-06T10:46:10.144Z,99433.48
2017-09-06T10:48:36.406Z,99430.11
2017-09-06T10:51:02.595Z,99414.17
2017-09-06T10:53:28.713Z,99427.33
2017-09-06T10:55:54.824Z,99422.94
2017-09-06T10:58:20.942Z,99413.05
2017-09-06T11:00:47.214Z,99415.55
2017-09-06T11:03:13.350Z,99413.87
2017-09-06T11:05:39.506Z,99414.23
2017-09-06T11:08:05.593Z,99407.85
2017-09-06T11:10:31.782Z,99415.98
2017-09-06T11:12:57.904Z,99409.08
2017-09-06T11:15:24.202Z,99380.20
2017-09-06T11:17:50.318Z,99408.48
2017-09-06T11:20:16.453Z,99401.84
2017-09-06T11:22:42.600Z,99397.38
2017-09-06T11:25:08.720Z,99395.47
2017-09-06T11:27:34.819Z,99396.92
2017-09-06T11:30:00.905Z,99386.34
2017-09-06T11:32:27.129Z,99392.47
2017-09-06T11:34:53.246Z,99384.23
2017-09-06T11:37:19.456Z,99388.34
2017-09-06T11:39:45.564Z,99392.23
2017-09-06T11:42:11.702Z,99374.70
2017-09-06T11:44:37.861Z,99387.22
2017-09-06T11:47:03.970Z,99386.41
2017-09-06T11:49:30.049Z,99390.92
2017-09-06T11:51:56.181Z,99390.94
2017-09-06T11:54:22.365Z,99391.95
2017-09-06T11:56:48.475Z,99391.99
2017-09-06T11:59:14.559Z,99400.57
2017-09-06T12:01:41.470Z,99420.75
2017-09-06T12:04:07.577Z,99429.01
2017-09-06T12:06:33.720Z,99431.67
2017-09-06T12:08:59.875Z,99422.09
2017-09-06T12:11:26.007Z,99417.36
2017-09-06T12:13:52.128Z,99418.83
2017-09-06T12:16:18.253Z,99410.94
2017-09-06T12:18:44.341Z,99408.23
2017-09-06T12:21:10.508Z,99402.89
2017-09-06T12:23:36.623Z,99391.14
2017-09-06T12:26:03.683Z,99384.79
2017-09-06T12:28:29.809Z,99388.99
2017-09-06T12:30:55.924Z,99393.83
2017-09-06T12:33:22.031Z,99383.16
2017-09-06T12:35:55.319Z,99387.76
2017-09-06T12:38:21.397Z,99381.56
2017-09-06T12:40:47.549Z,99381.68
2017-09-06T12:43:13.675Z,99368.79
2017-09-06T12:45:39.764Z,99374.38
2017-09-06T12:48:06.425Z,99372.03
2017-09-06T12:50:32.528Z,99368.11
2017-09-06T12:52:58.625Z,99366.55
2017-09-06T12:55:24.781Z,99366.45
2017-09-06T12:57:50.861Z,99363.98
2017-09-06T13:00:16.938Z,99367.03
2017-09-06T13:02:43.026Z,99375.98
2017-09-06T13:05:09.154Z,99377.80
2017-09-06T13:07:35.313Z,99364.08
2017-09-06T13:10:01.444Z,99360.89
2017-09-06T13:12:27.551Z,99355.77
2017-09-06T13:14:53.694Z,99357.33
2017-09-06T13:17:19.788Z,99344.94
2017-09-06T13:19:45.942Z,99342.34
2017-09-06T13:22:12.032Z,99339.84
2017-09-06T13:24:38.153Z,99333.50
2017-09-06T13:27:04.265Z,99330.42
2017-09-06T13:29:30.378Z,99335.31
2017-09-06T13:31:56.477Z,99332.63
2017-09-06T13:34:22.606Z,99327.93
2017-09-06T13:36:48.712Z,99341.11
2017-09-06T13:39:14.814Z,99326.31
2017-09-06T13:41:40.898Z,99319.86
2017-09-06T13:44:06.984Z,99327.55
2017-09-06T13:46:33.128Z,99318.78
2017-09-06T13:49:00.192Z,99314.31
2017-09-06T13:51:26.300Z,99316.41
2017-09-06T13:53:52.397Z,99303.09
2017-09-06T13:56:18.562Z,99316.29
2017-09-06T13:58:44.736Z,99318.34
2017-09-06T14:01:10.889Z,99334.73
2017-09-06T14:03:37.023Z,99316.22
2017-09-06T14:06:03.141Z,99300.31
2017-09-06T14:08:29.209Z,99305.86
2017-09-06T14:10:55.346Z,99314.33
2017-09-06T14:13:21.439Z,99302.68
2017-09-06T14:15:47.538Z,99301.47
2017-09-06T14:18:13.647Z,99293.83
2017-09-06T14:20:39.703Z,99295.25
2017-09-06T14:23:05.819Z,99293.98
2017-09-06T14:25:31.944Z,99287.25
2017-09-06T14:27:58.049Z,99277.78
2017-09-06T14:30:24.160Z,99279.96
2017-09-06T14:32:50.270Z,99280.36
2017-09-06T14:35:16.361Z,99292.36
2017-09-06T14:37:42.485Z,99285.81
2017-09-06T14:40:08.574Z,99280.45
2017-09-06T14:42:34.693Z,99272.01
2017-09-06T14:45:00.766Z,99277.48
2017-09-06T14:47:26.858Z,99277.13
2017-09-06T14:49:52.981Z,99276.41
2017-09-06T14:52:19.095Z,99288.89
2017-09-06T14:54:45.232Z,99285.44
2017-09-06T14:57:11.362Z,99298.28
2017-09-06T14:59:37.443Z,99287.84
2017-09-06T15:02:03.774Z,99286.90
2017-09-06T15:04:29.907Z,99295.34
2017-09-06T15:06:56.004Z,99364.70
2017-09-06T15:09:22.266Z,99362.81
2017-09-06T15:11:48.581Z,99372.72
2017-09-06T15:14:14.981Z,99357.16
2017-09-06T15:16:41.473Z,99365.56
2017-09-06T15:19:07.833Z,99363.24
2017-09-06T15:21:34.136Z,99394.14
2017-09-06T15:24:00.368Z,99387.47
2017-09-06T15:26:26.499Z,99406.87
2017-09-06T15:28:52.671Z,99425.64
2017-09-06T15:31:18.977Z,99425.50
2017-09-06T15:33:45.134Z,99426.80
2017-09-06T15:36:11.253Z,99443.20
2017-09-06T15:38:37.417Z,99440.84
2017-09-06T15:41:03.547Z,99451.30
2017-09-06T15:43:30.520Z,99458.45
2017-09-06T15:45:56.645Z,99455.25
2017-09-06T15:48:22.748Z,99455.00
2017-09-06T15:50:48.863Z,99449.72
2017-09-06T15:53:14.963Z,99454.27
2017-09-06T15:55:41.060Z,99458.20
2017-09-06T15:58:07.189Z,99461.83
2017-09-06T16:00:33.305Z,99459.06
2017-09-06T16:03:00.309Z,99474.90
2017-09-06T16:05:26.416Z,99473.39
2017-09-06T16:07:52.569Z,99480.03
2017-09-06T16:10:18.753Z,99475.47
2017-09-06T16:12:44.889Z,99478.01
2017-09-06T16:15:10.996Z,99482.02
2017-09-06T16:17:37.153Z,99478.32
2017-09-06T16:20:03.265Z,99484.20
2017-09-06T16:22:29.370Z,99488.50
2017-09-06T16:24:55.454Z,99479.34
2017-09-06T16:27:21.560Z,99474.31
2017-09-06T16:29:47.715Z,99486.16
2017-09-06T16:32:13.808Z,99491.25
2017-09-06T16:34:39.972Z,99495.16
2017-09-06T16:37:06.057Z,99506.70
2017-09-06T16:39:32.217Z,99502.77
2017-09-06T16:41:58.317Z,99496.66
2017-09-06T16:44:24.469Z,99505.24
2017-09-06T16:46:50.876Z,99500.14
2017-09-06T16:49:17.000Z,99497.80
2017-09-06T16:51:43.275Z,99494.45
2017-09-06T16:54:09.491Z,99496.22
2017-09-06T16:56:35.660Z,99501.00
2017-09-06T16:59:01.780Z,99499.73
2017-09-06T17:01:27.899Z,99510.63
2017-09-06T17:03:54.001Z,99505.95
2017-09-06T17:06:20.076Z,99508.56
2017-09-06T17:08:46.256Z,99508.91
2017-09-06T17:11:12.371Z,99505.19
2017-09-06T17:13:38.463Z,99499.63
2017-09-06T17:16:04.608Z,99500.95
2017-09-06T17:18:30.718Z,99489.70
2017-09-06T17:20:56.853Z,99486.00
2017-09-06T17:23:22.978Z,99503.56
2017-09-06T17:25:51.000Z,99494.10
2017-09-06T17:28:17.104Z,99499.56
2017-09-06T17:30:43.201Z,99502.06
2017-09-06T17:33:09.285Z,99502.48
2017-09-06T17:35:35.423Z,99501.83
2017-09-06T17:38:01.529Z,99506.34
2017-09-06T17:40:27.810Z,99517.51
2017-09-06T17:42:53.901Z,99513.13
2017-09-06T17:45:20.005Z,99525.03
2017-09-06T17:47:46.137Z,99523.88
2017-09-06T17:50:12.281Z,99517.80
2017-09-06T17:52:38.405Z,99531.46
2017-09-06T17:55:04.479Z,99519.86
2017-09-06T17:57:30.554Z,99531.54
2017-09-06T17:59:56.677Z,99537.88
2017-09-06T18:02:22.775Z,99537.86
2017-09-06T18:04:48.873Z,99546.02
2017-09-06T18:07:14.993Z,99547.29
2017-09-06T18:09:41.081Z,99550.16
2017-09-06T18:12:07.281Z,99568.56
2017-09-06T18:14:33.407Z,99572.80
2017-09-06T18:16:59.527Z,99580.89
2017-09-06T18:19:25.630Z,99575.71
2017-09-06T18:21:51.703Z,99581.81
2017-09-06T18:24:17.979Z,99580.09
2017-09-06T18:26:44.045Z,99591.57
2017-09-06T18:29:10.158Z,99585.67
2017-09-06T18:31:36.270Z,99593.17
2017-09-06T18:34:02.326Z,99605.42
2017-09-06T18:36:28.450Z,99596.24
2017-09-06T18:38:54.549Z,99600.45
2017-09-06T18:41:20.684Z,99597.66
2017-09-06T18:43:46.848Z,99605.06
2017-09-06T18:46:13.017Z,99611.86
2017-09-06T18:48:39.414Z,99610.95
2017-09-06T18:51:05.539Z,99619.87
2017-09-06T18:53:31.629Z,99616.78
2017-09-06T18:55:57.917Z,99620.64
2017-09-06T18:58:24.185Z,99618.52
2017-09-06T19:00:50.390Z,99632.84
2017-09-06T19:03:16.516Z,99620.33
2017-09-06T19:05:42.618Z,99623.51
2017-09-06T19:08:08.749Z,99615.44
2017-09-06T19:10:34.843Z,99619.98
2017-09-06T19:13:01.127Z,99615.58
2017-09-06T19:15:27.867Z,99615.33
2017-09-06T19:17:53.953Z,99623.81
2017-09-06T19:20:20.236Z,99606.41
2017-09-06T19:22:46.350Z,99619.17
2017-09-06T19:25:12.451Z,99615.23
2017-09-06T19:27:38.573Z,99615.16
2017-09-06T19:30:04.676Z,99617.02
2017-09-06T19:32:30.812Z,99609.55
2017-09-06T19:34:56.932Z,99613.30
2017-09-06T19:37:23.004Z,99612.91
2017-09-06T19:39:49.128Z,99608.02
2017-09-06T19:42:15.238Z,99612.66
2017-09-06T19:44:41.314Z,99605.16
2017-09-06T19:47:07.444Z,99610.47
2017-09-06T19:49:33.544Z,99614.25
2017-09-06T19:51:59.632Z,99614.94
2017-09-06T19:54:25.748Z,99616.52
2017-09-06T19:56:51.877Z,99602.90
2017-09-06T19:59:17.988Z,99616.39
2017-09-06T20:01:44.108Z,99606.00
2017-09-06T20:04:10.255Z,99607.88
2017-09-06T20:06:36.331Z,99602.44
2017-09-06T20:09:02.468Z,99604.90
2017-09-06T20:11:28.714Z,99613.77
2017-09-06T20:13:54.778Z,99618.75
2017-09-06T20:16:20.921Z,99609.88
2017-09-06T20:18:47.083Z,99603.03
2017-09-06T20:21:13.204Z,99608.72
2017-09-06T20:23:39.280Z,99593.02
2017-09-06T20:26:05.641Z,99603.11
2017-09-06T20:28:32.535Z,99598.66
2017-09-06T20:30:58.607Z,99616.17
2017-09-06T20:33:24.764Z,99605.09
2017-09-06T20:35:50.897Z,99596.05
2017-09-06T20:38:17.024Z,99602.95
2017-09-06T20:40:43.221Z,99596.95
2017-09-06T20:43:09.297Z,99603.48
2017-09-06T20:45:35.513Z,99605.27
2017-09-06T20:48:01.630Z,99606.08
2017-09-06T20:50:27.705Z,99608.20
2017-09-06T20:52:53.840Z,99601.41
2017-09-06T20:55:19.984Z,99607.94
2017-09-06T20:57:46.074Z,99609.69
2017-09-06T21:00:12.223Z,99611.52
2017-09-06T21:02:38.349Z,99623.48
2017-09-06T21:05:04.452Z,99626.17
2017-09-06T21:07:30.608Z,99630.48
2017-09-06T21:09:56.701Z,99618.20
2017-09-06T21:12:22.816Z,99619.63
2017-09-06T21:14:48.999Z,99629.81
2017-09-06T21:17:15.098Z,99626.03
2017-09-06T21:19:41.336Z,99635.08
2017-09-06T21:22:07.474Z,99640.64
2017-09-06T21:24:33.538Z,99641.58
2017-09-06T21:26:59.713Z,99637.97
2017-09-06T21:29:25.815Z,99636.58
2017-09-06T21:31:51.913Z,99647.06
2017-09-06T21:34:18.045Z,99652.31
2017-09-06T21:36:44.169Z,99656.75
2017-09-06T21:39:10.280Z,99654.53
2017-09-06T21:41:36.358Z,99654.81
2017-09-06T21:44:02.460Z,99657.13
2017-09-06T21:46:28.538Z,99660.32
2017-09-06T21:48:54.622Z,99666.98
2017-09-06T21:51:20.778Z,99661.07
2017-09-06T21:53:46.899Z,99662.08
2017-09-06T21:56:12.995Z,99664.67
2017-09-06T21:58:39.114Z,99664.66
2017-09-06T22:01:05.184Z,99666.52
2017-09-06T22:03:31.252Z,99676.67
2017-09-06T22:05:57.410Z,99665.55
2017-09-06T22:08:23.579Z,99676.83
2017-09-06T22:10:49.670Z,99675.58
2017-09-06T22:13:15.773Z,99672.01
2017-09-06T22:15:41.873Z,99672.85
2017-09-06T22:18:39.051Z,99676.20
2017-09-06T22:21:05.217Z,99677.05
2017-09-06T22:23:32.143Z,99673.27
2017-09-06T22:25:58.246Z,99680.47
2017-09-06T22:28:24.315Z,99684.14
2017-09-06T22:30:50.399Z,99692.19
2017-09-06T22:33:16.487Z,99691.77
2017-09-06T22:35:43.345Z,99689.92
2017-09-06T22:38:09.396Z,99684.91
2017-09-06T22:40:35.682Z,99692.84
2017-09-06T22:43:02.523Z,99697.40
2017-09-06T22:45:29.377Z,99696.71
2017-09-06T22:47:56.249Z,99683.82
2017-09-06T22:50:22.353Z,99682.22
2017-09-06T22:52:48.450Z,99687.16
2017-09-06T22:55:14.531Z,99690.20
2017-09-06T22:57:40.673Z,99688.08
2017-09-06T23:00:06.784Z,99686.41
2017-09-06T23:02:33.004Z,99686.88
2017-09-06T23:04:59.082Z,99681.60
2017-09-06T23:07:25.168Z,99680.29
2017-09-06T23:09:51.268Z,99692.19
2017-09-06T23:12:17.417Z,99692.53
2017-09-06T23:14:43.516Z,99681.84
2017-09-06T23:17:10.390Z,99696.72
2017-09-06T23:19:36.541Z,99694.52
2017-09-06T23:22:02.638Z,99692.97
2017-09-06T23:24:28.738Z,99694.20
2017-09-06T23:26:55.795Z,99702.38
2017-09-06T23:29:21.927Z,99695.15
2017-09-06T23:31:48.021Z,99690.27
2017-09-06T23:34:14.086Z,99698.89
2017-09-06T23:36:40.530Z,99695.07
2017-09-06T23:39:06.629Z,99700.88
2017-09-06T23:41:32.723Z,99696.35
2017-09-06T23:43:58.790Z,99697.33
2017-09-06T23:46:25.047Z,99698.47
2017-09-06T23:48:51.149Z,99706.34
2017-09-06T23:51:17.267Z,99698.98
2017-09-06T23:53:43.387Z,99700.39
2017-09-06T23:56:10.226Z,99687.89
2017-09-06T23:58:37.041Z,99699.01
